FRA weather

Frankfurt am Main Airport
Frankfurt am Main, Hesse, Germany

Public forecast

Using degrees Celsius for public forecast. Weather courtesy of forecast.io.

METAR (pilot weather report)

Retrieved 2018/11/16 21:20 UTC (19 minutes ago):

EDDF 162120Z 02011KT CAVOK 06/02 Q1029 NOSIG

TAF (pilot weather forecast)

Retrieved 2018/11/16 18:30 UTC (3 hours ago):

TAF EDDF 161700Z 1618/1724 05009KT CAVOK PROB30 TEMPO 1710/1716 05015G25KT